Aviation Digital Data Service (ADDS)

Output produced by METARs form (1348 UTC 26 May 2018)
found at http://www.aviationweather.gov/adds/metars/
 
ENAT 261250Z 31026KT 9999 FEW020 SCT041 09/01 Q1021 RMK WIND 700FT 31031G43KT
ENAN 261320Z 26023G34KT 9999 BKN023 08/02 Q1030
TAF ENAN 2612/2712 25018KT 9999 BKN025 
     TEMPO 2612/2615 25022G32KT -SHRA 
     BECMG 2621/2624 24008KT 
     BECMG 2706/2709 23018KT -RADZ
       
ENML 261320Z 09007KT 9999 FEW010 16/09 Q1033
ENNA 261320Z AUTO 28033G56KT 250V320 9999 NCD 10/M02 Q1019 RMK WIND 1800FT 29066G81KT
TAF ENNA 2612/2712 28025G40KT 9999 BKN030 
     TEMPO 2612/2615 30038G55KT 
     BECMG 2619/2621 31015KT 
     TEMPO 2619/2706 30015G28KT
       
ENDU 261320Z 27012KT 220V310 9999 FEW035 BKN050 10/M00 Q1029 RMK WIND 1100FT 27020KT WIND 2200FT 28035KT
TAF ENDU 2612/2712 25012KT 9999 FEW025 BKN040 
     TEMPO 2612/2618 25015G25KT 
     BECMG 2623/2702 VRB05KT 
     BECMG 2705/2708 23010KT 
     TEMPO 2708/2712 RA BKN014
       
ENBR 261320Z 32013KT CAVOK 19/07 Q1029 NOSIG RMK WIND 1200FT 34017KT
TAF ENBR 2612/2712 34012KT CAVOK 
     BECMG 2618/2621 VRB05KT 
     BECMG 2710/2712 34010KT
       
ENBO 261320Z 25015KT 9999 FEW015 SCT050 10/06 Q1034 NOSIG
TAF ENBO 2612/2712 24015KT 9999 FEW010 SCT025
       
ENBL 261250Z 31008KT CAVOK 22/07 Q1030
ENBN 261320Z 26006KT 220V300 9999 FEW030 BKN140 11/04 Q1035
ENEV 261250Z 27011KT 230V320 9999 BKN048 11/04 Q1030 RMK WIND 1400FT 23024KT
ENFL 261320Z AUTO 30015KT 9999NDV NCD 16/09 Q1030
ENHD 261320Z 35015KT CAVOK 15/10 Q1029
ENKR 261320Z 29027G41KT CAVOK 10/M03 Q1018 RMK WIND 731FT 29041G52KT
ENMS 261320Z 31006KT 240V040 9999 FEW039 SCT140 12/01 Q1034 RMK WIND 412FT 29007KT 240V340
ENCN 261320Z 12006KT 050V160 CAVOK 25/11 Q1027
ENKB 261320Z 36004KT 310V070 9999 BKN020 13/06 Q1034 RMK WIND 745FT 35004KT
ENNO 261250Z 12006KT CAVOK 28/08 Q1026
ENOL 261320Z 36011KT 9999 FEW030 SCT190 13/06 Q1035 NOSIG
TAF ENOL 2612/2712 34012KT 9999 FEW020 SCT200 
     BECMG 2620/2622 VRB07KT 
     BECMG 2704/2706 11010KT
       
ENGM 261320Z VRB02KT CAVOK 25/06 Q1027 NOSIG
TAF ENGM 2612/2712 02008KT CAVOK
       
ENRO 261320Z AUTO 01010KT 330V040 9999NDV NCD 19/06 Q1031
ENRY 261320Z AUTO 35007KT 9999NDV FEW190/// 25/09 Q1027
TAF ENRY 2612/2712 02008KT CAVOK
       
ENSG 261050Z 06004KT CAVOK 19/05 Q1031 RMK WIND 3806FT VRB03KT
ENZV 261320Z 29012KT CAVOK 22/12 Q1028 NOSIG
TAF ENZV 2612/2712 33010KT CAVOK 
     BECMG 2618/2620 VRB04KT 
     BECMG 2710/2712 34010KT
       
ENST 261250Z 23007KT 9999 FEW018 SCT025 11/06 Q1035 RMK WIND 300FT 26007KT
ENTO 261320Z 03006KT 360V060 CAVOK 24/10 Q1027
TAF ENTO 2612/2712 04008KT CAVOK
       
ENTC 261320Z 28023KT 9999 SHRA FEW005 BKN038 07/01 Q1028 TEMPO 27020G30KT RMK WIND 2600FT 27022G34KT
TAF ENTC 2612/2712 26018KT 9999 -SHRA SCT020 BKN030 
     TEMPO 2612/2614 27018G28KT 
     BECMG 2617/2619 22008KT
       
ENVA 261320Z 28008KT CAVOK 16/09 Q1034 NOSIG RMK WIND 670FT VRB03KT
TAF ENVA 2612/2712 VRB05KT 9999 SCT025 
     TEMPO 2612/2618 27012KT
       
ENAL 261320Z 04008KT 010V070 9999 SCT015 14/10 Q1034